createdAt,value
2023-01-09T00:00:52.524Z,15.90
2023-01-09T00:11:00.297Z,16.38
2023-01-09T00:21:04.851Z,13.18
2023-01-09T00:31:08.649Z,12.13
2023-01-09T00:41:15.945Z,11.07
2023-01-09T00:51:20.412Z,13.60
2023-01-09T01:01:22.826Z,20.75
2023-01-09T01:11:25.161Z,16.63
2023-01-09T01:21:27.669Z,18.50
2023-01-09T01:31:29.848Z,15.10
2023-01-09T01:41:32.118Z,16.83
2023-01-09T01:51:39.098Z,23.17
2023-01-09T02:01:44.447Z,27.88
2023-01-09T02:11:48.880Z,21.83
2023-01-09T02:22:36.018Z,13.98
2023-01-09T02:32:43.818Z,20.23
2023-01-09T02:42:48.458Z,16.57
2023-01-09T02:52:59.402Z,22.20
2023-01-09T03:03:10.206Z,17.33
2023-01-09T03:13:18.473Z,15.73
2023-01-09T03:23:20.727Z,11.07
2023-01-09T03:33:22.960Z,12.23
2023-01-09T03:43:25.139Z,16.88
2023-01-09T03:53:28.640Z,15.00
2023-01-09T04:03:30.983Z,19.42
2023-01-09T04:13:33.346Z,16.67
2023-01-09T04:23:35.534Z,17.88
2023-01-09T04:33:37.759Z,17.33
2023-01-09T04:43:42.319Z,20.65
2023-01-09T04:53:44.523Z,22.25
2023-01-09T05:03:46.790Z,14.30
2023-01-09T05:13:48.953Z,2.92
2023-01-09T05:23:51.207Z,21.50
2023-01-09T05:33:53.763Z,5.60
2023-01-09T05:43:55.966Z,5.50
2023-01-09T05:53:59.184Z,7.63
2023-01-09T06:04:01.438Z,7.10
2023-01-09T06:14:03.675Z,9.20
2023-01-09T06:24:06.422Z,8.88
2023-01-09T06:34:09.072Z,7.88
2023-01-09T06:44:11.416Z,6.05
2023-01-09T06:54:13.685Z,8.20
2023-01-09T07:04:17.614Z,6.95
2023-01-09T07:14:20.117Z,8.90
2023-01-09T07:24:22.333Z,10.05
2023-01-09T07:34:24.546Z,10.65
2023-01-09T07:44:27.144Z,10.23
2023-01-09T07:54:29.410Z,12.52
2023-01-09T08:04:31.838Z,10.05
2023-01-09T08:14:34.297Z,6.78
2023-01-09T08:24:36.861Z,5.18
2023-01-09T08:34:39.099Z,3.80
2023-01-09T08:45:00.029Z,1.80
2023-01-09T08:55:02.241Z,1.92
2023-01-09T09:05:04.772Z,4.13
2023-01-09T09:15:13.636Z,9.85
2023-01-09T09:25:17.071Z,5.22
2023-01-09T09:35:23.797Z,5.85
2023-01-09T09:45:59.535Z,2.47
2023-01-09T09:56:02.826Z,3.05
2023-01-09T10:06:10.941Z,10.48
2023-01-09T10:16:35.534Z,4.10
2023-01-09T10:26:46.265Z,3.90
2023-01-09T10:37:00.194Z,3.45
2023-01-09T10:47:09.022Z,5.40
2023-01-09T10:57:16.388Z,5.10
2023-01-09T11:07:20.910Z,5.55
2023-01-09T11:17:27.174Z,10.60
2023-01-09T11:27:29.523Z,10.43
2023-01-09T11:37:32.796Z,5.85
2023-01-09T11:47:41.011Z,6.03
2023-01-09T11:57:43.292Z,20.55
2023-01-09T12:07:57.791Z,8.60
2023-01-09T12:18:11.655Z,9.52
2023-01-09T12:28:13.808Z,4.07
2023-01-09T12:38:37.282Z,6.93
2023-01-09T12:49:09.341Z,3.75
2023-01-09T12:59:33.228Z,3.80
2023-01-09T13:09:53.478Z,4.97
2023-01-09T13:19:55.857Z,13.90
2023-01-09T13:30:09.000Z,6.85
2023-01-09T13:40:20.064Z,8.50
2023-01-09T13:50:26.573Z,6.68
2023-01-09T14:00:28.803Z,9.15
2023-01-09T14:10:39.777Z,3.13
2023-01-09T14:20:45.993Z,6.88
2023-01-09T14:30:54.447Z,7.68
2023-01-09T14:51:22.268Z,2.13
2023-01-09T15:01:27.490Z,2.10
2023-01-09T15:11:31.331Z,2.28
2023-01-09T15:21:33.678Z,1.77
2023-01-09T15:31:39.133Z,2.08
2023-01-09T15:42:00.102Z,1.60
2023-01-09T15:52:03.182Z,1.60
2023-01-09T16:02:31.139Z,2.65
2023-01-09T16:12:33.553Z,2.47
2023-01-09T16:22:37.021Z,2.15
2023-01-09T16:32:51.554Z,14.38
2023-01-09T16:43:01.557Z,23.23
2023-01-09T16:53:14.590Z,3.78
2023-01-09T17:03:17.775Z,7.15
2023-01-09T17:13:20.497Z,38.70
2023-01-09T17:23:25.931Z,40.20
2023-01-09T17:33:28.457Z,84.43
2023-01-09T17:43:32.237Z,40.25
2023-01-09T17:53:34.449Z,16.38
2023-01-09T18:03:36.696Z,9.50
2023-01-09T18:13:38.940Z,6.45
2023-01-09T18:23:41.234Z,13.50
2023-01-09T18:33:46.880Z,12.57
2023-01-09T18:43:54.044Z,4.95
2023-01-09T18:53:57.321Z,3.42
2023-01-09T19:04:00.123Z,8.07
2023-01-09T19:14:02.642Z,11.07
2023-01-09T19:24:05.295Z,5.80
2023-01-09T19:34:08.044Z,12.85
2023-01-09T19:44:11.000Z,14.25
2023-01-09T19:54:13.250Z,8.70
2023-01-09T20:04:17.475Z,5.70
2023-01-09T20:14:20.973Z,4.03
2023-01-09T20:24:23.271Z,2.30
2023-01-09T20:34:25.485Z,1.90
2023-01-09T20:44:27.692Z,3.90
2023-01-09T20:54:29.944Z,14.05
2023-01-09T21:04:32.313Z,6.47
2023-01-09T21:14:36.010Z,5.15
2023-01-09T21:24:38.368Z,3.95
2023-01-09T21:40:13.905Z,3.03
2023-01-09T21:50:17.462Z,2.97
2023-01-09T22:00:20.152Z,2.30
2023-01-09T22:10:22.580Z,1.90
2023-01-09T22:20:24.866Z,2.00
2023-01-09T22:30:27.172Z,2.15
2023-01-09T22:40:29.417Z,1.90
2023-01-09T22:50:31.628Z,1.30
2023-01-09T23:00:33.911Z,1.50
2023-01-09T23:10:36.216Z,0.98
2023-01-09T23:20:38.516Z,6.97
2023-01-09T23:30:40.765Z,4.95
2023-01-09T23:40:43.183Z,1.55
2023-01-09T23:50:53.297Z,2.38
